createdAt,value
2024-03-15T00:00:52.983Z,4.22
2024-03-15T00:03:19.565Z,4.15
2024-03-15T00:05:46.109Z,4.05
2024-03-15T00:08:12.572Z,4.07
2024-03-15T00:10:39.051Z,3.90
2024-03-15T00:13:05.681Z,3.95
2024-03-15T00:15:32.206Z,3.70
2024-03-15T00:17:59.815Z,4.10
2024-03-15T00:20:26.279Z,3.78
2024-03-15T00:22:52.677Z,3.70
2024-03-15T00:25:22.568Z,3.97
2024-03-15T00:27:49.933Z,4.40
2024-03-15T00:30:16.701Z,4.32
2024-03-15T00:32:43.762Z,4.10
2024-03-15T00:35:10.580Z,4.43
2024-03-15T00:37:37.461Z,4.45
2024-03-15T00:40:04.848Z,4.10
2024-03-15T00:42:31.896Z,3.80
2024-03-15T00:44:59.099Z,3.90
2024-03-15T00:47:25.629Z,3.97
2024-03-15T00:49:52.128Z,3.85
2024-03-15T00:52:18.901Z,3.78
2024-03-15T00:54:47.161Z,3.58
2024-03-15T00:57:13.815Z,4.28
2024-03-15T00:59:40.710Z,4.05
2024-03-15T01:02:07.328Z,4.05
2024-03-15T01:04:33.921Z,4.18
2024-03-15T01:07:00.365Z,4.00
2024-03-15T01:09:26.863Z,4.15
2024-03-15T01:11:53.320Z,4.63
2024-03-15T01:14:19.841Z,4.35
2024-03-15T01:16:47.514Z,3.90
2024-03-15T01:19:14.968Z,4.43
2024-03-15T01:21:41.567Z,4.70
2024-03-15T01:24:08.552Z,4.63
2024-03-15T01:26:36.526Z,4.43
2024-03-15T01:29:02.975Z,4.30
2024-03-15T01:31:29.424Z,4.47
2024-03-15T01:33:56.891Z,4.38
2024-03-15T01:36:23.654Z,4.53
2024-03-15T01:38:50.116Z,4.25
2024-03-15T01:41:16.535Z,4.13
2024-03-15T01:43:49.516Z,4.65
2024-03-15T01:46:16.031Z,4.45
2024-03-15T01:48:43.953Z,4.90
2024-03-15T01:51:10.480Z,4.20
2024-03-15T01:53:37.750Z,4.63
2024-03-15T01:56:04.247Z,4.70
2024-03-15T01:58:31.347Z,4.25
2024-03-15T02:00:58.165Z,4.80
2024-03-15T02:03:24.967Z,4.50
2024-03-15T02:05:51.533Z,4.22
2024-03-15T02:08:19.946Z,4.90
2024-03-15T02:10:47.069Z,4.68
2024-03-15T02:13:17.014Z,4.88
2024-03-15T02:15:43.918Z,4.65
2024-03-15T02:18:10.639Z,4.50
2024-03-15T02:20:37.206Z,4.72
2024-03-15T02:23:06.480Z,4.47
2024-03-15T02:25:32.954Z,4.72
2024-03-15T02:27:59.621Z,4.53
2024-03-15T02:30:26.856Z,4.80
2024-03-15T02:32:53.560Z,4.85
2024-03-15T02:35:27.774Z,5.13
2024-03-15T02:37:59.002Z,4.30
2024-03-15T02:40:25.830Z,4.75
2024-03-15T02:42:52.898Z,4.82
2024-03-15T02:45:22.479Z,4.35
2024-03-15T02:47:49.263Z,4.93
2024-03-15T02:50:15.792Z,5.60
2024-03-15T02:52:44.696Z,4.88
2024-03-15T02:55:12.060Z,4.80
2024-03-15T02:57:38.509Z,4.57
2024-03-15T03:00:05.392Z,5.03
2024-03-15T03:02:31.864Z,4.32
2024-03-15T03:04:58.333Z,4.80
2024-03-15T03:07:25.808Z,5.15
2024-03-15T03:09:53.037Z,4.95
2024-03-15T03:12:19.519Z,5.07
2024-03-15T03:14:46.623Z,4.60
2024-03-15T03:17:14.121Z,5.55
2024-03-15T03:19:40.520Z,4.63
2024-03-15T03:22:07.359Z,4.90
2024-03-15T03:24:34.146Z,5.05
2024-03-15T03:27:01.100Z,5.00
2024-03-15T03:29:27.878Z,4.75
2024-03-15T03:31:54.366Z,4.90
2024-03-15T03:34:20.790Z,4.78
2024-03-15T03:36:47.712Z,4.45
2024-03-15T03:39:14.986Z,4.78
2024-03-15T03:41:41.650Z,4.68
2024-03-15T03:44:08.724Z,5.00
2024-03-15T03:46:35.232Z,5.20
2024-03-15T03:49:02.179Z,4.82
2024-03-15T03:51:28.672Z,5.03
2024-03-15T03:53:55.178Z,5.43
2024-03-15T03:56:21.585Z,5.40
2024-03-15T03:58:48.104Z,5.05
2024-03-15T04:01:18.285Z,5.22
2024-03-15T04:03:46.188Z,4.95
2024-03-15T04:06:12.752Z,4.70
2024-03-15T04:08:39.275Z,5.10
2024-03-15T04:11:05.749Z,4.78
2024-03-15T04:13:32.410Z,4.78
2024-03-15T04:15:59.070Z,4.68
2024-03-15T04:18:25.612Z,5.10
2024-03-15T04:20:53.348Z,4.38
2024-03-15T04:23:22.287Z,4.85
2024-03-15T04:25:49.943Z,5.00
2024-03-15T04:28:19.519Z,4.78
2024-03-15T04:30:46.962Z,5.03
2024-03-15T04:33:13.668Z,4.22
2024-03-15T04:35:41.428Z,5.10
2024-03-15T04:38:08.079Z,4.93
2024-03-15T04:40:35.655Z,5.05
2024-03-15T04:43:02.138Z,5.50
2024-03-15T04:45:28.652Z,5.30
2024-03-15T04:47:55.975Z,5.20
2024-03-15T04:50:22.512Z,5.00
2024-03-15T04:52:49.268Z,5.32
2024-03-15T04:55:15.710Z,5.15
2024-03-15T04:57:42.256Z,4.75
2024-03-15T05:00:18.503Z,5.10
2024-03-15T05:02:52.095Z,5.10
2024-03-15T05:05:23.342Z,5.18
2024-03-15T05:07:50.163Z,4.85
2024-03-15T05:10:18.455Z,4.60
2024-03-15T05:12:45.814Z,4.82
2024-03-15T05:15:13.458Z,4.88
2024-03-15T05:17:40.484Z,4.72
2024-03-15T05:20:14.535Z,5.30
2024-03-15T05:22:44.696Z,4.85
2024-03-15T05:25:15.102Z,4.80
2024-03-15T05:27:41.903Z,4.65
2024-03-15T05:30:09.210Z,5.07
2024-03-15T05:32:35.838Z,5.80
2024-03-15T05:35:02.368Z,4.53
2024-03-15T05:37:29.541Z,4.45
2024-03-15T05:39:56.401Z,4.43
2024-03-15T05:42:23.446Z,4.97
2024-03-15T05:44:49.895Z,4.50
2024-03-15T05:47:17.523Z,4.80
2024-03-15T05:49:44.008Z,4.85
2024-03-15T05:52:12.185Z,4.80
2024-03-15T05:54:38.875Z,4.90
2024-03-15T05:57:05.696Z,4.72
2024-03-15T05:59:35.013Z,5.07
2024-03-15T06:02:02.171Z,4.57
2024-03-15T06:04:28.631Z,4.25
2024-03-15T06:06:55.167Z,4.57
2024-03-15T06:09:21.607Z,4.93
2024-03-15T06:11:50.320Z,4.50
2024-03-15T06:14:17.180Z,5.10
2024-03-15T06:16:44.621Z,4.35
2024-03-15T06:19:11.200Z,4.70
2024-03-15T06:21:37.823Z,4.30
2024-03-15T06:24:05.143Z,4.43
2024-03-15T06:26:31.534Z,4.80
2024-03-15T06:28:58.623Z,4.60
2024-03-15T06:31:25.551Z,4.43
2024-03-15T06:33:52.172Z,4.40
2024-03-15T06:36:20.341Z,4.72
2024-03-15T06:38:47.040Z,4.60
2024-03-15T06:41:15.329Z,4.38
2024-03-15T06:44:00.439Z,4.28
2024-03-15T06:46:45.522Z,4.32
2024-03-15T06:49:14.616Z,4.05
2024-03-15T06:51:59.821Z,4.10
2024-03-15T06:54:27.825Z,4.05
2024-03-15T06:56:55.406Z,3.70
2024-03-15T06:59:21.866Z,3.65
2024-03-15T07:01:48.452Z,3.75
2024-03-15T07:04:15.843Z,4.20
2024-03-15T07:06:42.756Z,3.85
2024-03-15T07:09:16.321Z,3.80
2024-03-15T07:11:48.236Z,3.70
2024-03-15T07:14:14.752Z,3.97
2024-03-15T07:16:41.203Z,3.95
2024-03-15T07:19:08.018Z,3.90
2024-03-15T07:21:34.687Z,4.00
2024-03-15T07:24:01.897Z,3.72
2024-03-15T07:26:29.592Z,4.15
2024-03-15T07:28:57.003Z,3.80
2024-03-15T07:31:24.044Z,3.70
2024-03-15T07:33:50.539Z,4.10
2024-03-15T07:36:19.490Z,3.63
2024-03-15T07:38:47.088Z,4.03
2024-03-15T07:41:13.524Z,3.28
2024-03-15T07:43:40.081Z,3.75
2024-03-15T07:46:07.113Z,4.00
2024-03-15T07:48:33.685Z,3.83
2024-03-15T07:51:00.943Z,4.45
2024-03-15T07:53:27.850Z,3.80
2024-03-15T07:55:55.288Z,4.07
2024-03-15T07:58:21.818Z,4.05
2024-03-15T08:00:48.537Z,4.30
2024-03-15T08:03:15.233Z,3.90
2024-03-15T08:05:41.742Z,4.00
2024-03-15T08:08:08.140Z,4.10
2024-03-15T08:10:34.924Z,4.15
2024-03-15T08:13:01.801Z,4.40
2024-03-15T08:15:33.627Z,4.05
2024-03-15T08:18:01.329Z,3.70
2024-03-15T08:20:28.008Z,3.50
2024-03-15T08:22:56.909Z,4.15
2024-03-15T08:25:24.300Z,3.90
2024-03-15T08:27:51.321Z,4.28
2024-03-15T08:30:18.860Z,4.25
2024-03-15T08:32:45.623Z,4.03
2024-03-15T08:35:15.551Z,4.45
2024-03-15T08:37:45.189Z,4.10
2024-03-15T08:40:14.301Z,4.15
2024-03-15T08:42:41.678Z,3.90
2024-03-15T08:45:10.236Z,3.78
2024-03-15T08:47:50.973Z,3.97
2024-03-15T08:50:27.972Z,3.90
2024-03-15T08:52:54.453Z,3.95
2024-03-15T08:55:22.279Z,4.35
2024-03-15T08:57:48.921Z,4.18
2024-03-15T09:00:15.719Z,4.10
2024-03-15T09:02:42.269Z,3.80
2024-03-15T09:05:11.976Z,3.45
2024-03-15T09:07:39.586Z,3.80
2024-03-15T09:10:16.114Z,3.83
2024-03-15T09:12:46.558Z,3.67
2024-03-15T09:15:13.809Z,3.78
2024-03-15T09:17:41.238Z,3.88
2024-03-15T09:20:31.285Z,4.30
2024-03-15T09:22:58.033Z,4.32
2024-03-15T09:25:27.157Z,3.85
2024-03-15T09:27:54.686Z,3.85
2024-03-15T09:30:27.787Z,3.97
2024-03-15T09:32:54.830Z,3.92
2024-03-15T09:35:21.971Z,3.50
2024-03-15T09:37:51.744Z,3.67
2024-03-15T09:40:19.735Z,3.28
2024-03-15T09:42:50.286Z,3.55
2024-03-15T09:45:20.395Z,3.55
2024-03-15T09:47:52.831Z,3.10
2024-03-15T09:50:25.935Z,3.33
2024-03-15T09:52:52.874Z,3.25
2024-03-15T09:55:20.739Z,3.25
2024-03-15T09:57:50.174Z,2.83
2024-03-15T10:00:17.330Z,3.00
2024-03-15T10:02:48.470Z,3.40
2024-03-15T10:05:15.431Z,3.00
2024-03-15T10:07:42.522Z,3.70
2024-03-15T10:10:13.669Z,2.95
2024-03-15T10:12:45.460Z,3.10
2024-03-15T10:15:14.806Z,3.42
2024-03-15T10:17:42.559Z,3.10
2024-03-15T10:20:15.822Z,2.70
2024-03-15T10:22:42.891Z,2.88
2024-03-15T10:25:17.088Z,3.47
2024-03-15T10:27:44.698Z,2.95
2024-03-15T10:30:19.062Z,2.92
2024-03-15T10:32:48.870Z,3.05
2024-03-15T10:35:16.959Z,2.80
2024-03-15T10:37:44.648Z,3.10
2024-03-15T10:40:14.767Z,2.70
2024-03-15T10:42:43.535Z,3.08
2024-03-15T10:45:14.541Z,2.53
2024-03-15T10:47:47.176Z,2.38
2024-03-15T10:50:16.816Z,2.90
2024-03-15T10:52:47.975Z,2.40
2024-03-15T10:55:21.620Z,2.00
2024-03-15T10:57:48.558Z,2.17
2024-03-15T11:00:27.638Z,1.92
2024-03-15T11:02:55.745Z,2.33
2024-03-15T11:05:27.662Z,2.40
2024-03-15T11:08:09.276Z,2.55
2024-03-15T11:10:39.811Z,2.25
2024-03-15T11:13:10.703Z,2.28
2024-03-15T11:15:38.830Z,2.45
2024-03-15T11:18:12.741Z,2.05
2024-03-15T11:20:51.116Z,2.10
2024-03-15T11:23:20.357Z,2.00
2024-03-15T11:25:56.770Z,1.80
2024-03-15T11:28:25.143Z,1.80
2024-03-15T11:30:51.664Z,1.98
2024-03-15T11:33:18.841Z,2.00
2024-03-15T11:35:46.014Z,2.40
2024-03-15T11:38:13.291Z,2.80
2024-03-15T11:40:41.558Z,2.33
2024-03-15T11:43:13.984Z,2.08
2024-03-15T11:45:43.421Z,2.40
2024-03-15T11:48:25.034Z,2.78
2024-03-15T11:50:53.674Z,2.75
2024-03-15T11:53:23.277Z,2.50
2024-03-15T11:55:51.566Z,3.00
2024-03-15T11:58:20.059Z,3.20
2024-03-15T12:00:48.990Z,2.90
2024-03-15T12:03:17.294Z,3.30
2024-03-15T12:05:45.164Z,2.70
2024-03-15T12:08:16.542Z,2.75
2024-03-15T12:10:45.731Z,3.22
2024-03-15T12:13:19.661Z,3.03
2024-03-15T12:15:47.582Z,3.20
2024-03-15T12:18:19.868Z,3.03
2024-03-15T12:20:47.872Z,3.28
2024-03-15T12:23:19.096Z,2.60
2024-03-15T12:25:46.592Z,3.45
2024-03-15T12:28:15.194Z,3.72
2024-03-15T12:30:43.827Z,2.83
2024-03-15T12:33:14.053Z,1.75
2024-03-15T12:35:41.775Z,1.42
2024-03-15T12:38:13.728Z,1.58
2024-03-15T12:40:44.295Z,1.42
2024-03-15T12:43:11.724Z,1.40
2024-03-15T12:45:44.823Z,1.30
2024-03-15T12:48:13.052Z,1.60
2024-03-15T12:50:39.981Z,1.70
2024-03-15T12:53:13.018Z,1.75
2024-03-15T12:55:41.305Z,1.63
2024-03-15T12:58:08.850Z,2.28
2024-03-15T13:00:35.626Z,2.00
2024-03-15T13:03:02.409Z,1.90
2024-03-15T13:05:28.835Z,1.92
2024-03-15T13:07:55.264Z,2.10
2024-03-15T13:10:21.951Z,2.03
2024-03-15T13:12:53.787Z,1.95
2024-03-15T13:15:20.921Z,2.67
2024-03-15T13:17:53.977Z,1.92
2024-03-15T13:20:22.580Z,2.30
2024-03-15T13:22:54.180Z,2.10
2024-03-15T13:25:33.656Z,1.90
2024-03-15T13:28:05.463Z,1.90
2024-03-15T13:30:32.135Z,2.40
2024-03-15T13:33:01.345Z,2.10
2024-03-15T13:35:31.637Z,2.47
2024-03-15T13:37:58.483Z,2.00
2024-03-15T13:40:25.817Z,2.30
2024-03-15T13:42:54.173Z,1.92
2024-03-15T13:45:23.363Z,2.30
2024-03-15T13:48:02.133Z,2.13
2024-03-15T13:50:29.878Z,2.22
2024-03-15T13:52:56.433Z,2.03
2024-03-15T13:55:23.957Z,2.45
2024-03-15T13:57:50.724Z,2.10
2024-03-15T14:00:39.295Z,2.17
2024-03-15T14:03:06.324Z,2.30
2024-03-15T14:05:39.286Z,2.15
2024-03-15T14:08:09.083Z,1.90
2024-03-15T14:10:36.716Z,2.15
2024-03-15T14:13:07.668Z,2.03
2024-03-15T14:15:38.061Z,2.05
2024-03-15T14:18:08.182Z,1.90
2024-03-15T14:20:38.479Z,2.20
2024-03-15T14:23:06.177Z,2.05
2024-03-15T14:25:33.892Z,1.98
2024-03-15T14:28:04.484Z,2.28
2024-03-15T14:30:31.069Z,2.47
2024-03-15T14:32:57.576Z,2.15
2024-03-15T14:35:24.295Z,2.00
2024-03-15T14:37:50.785Z,1.60
2024-03-15T14:40:19.194Z,1.80
2024-03-15T14:42:46.384Z,1.70
2024-03-15T14:45:13.789Z,1.25
2024-03-15T14:47:41.720Z,1.02
2024-03-15T14:50:09.375Z,0.95
2024-03-15T14:52:36.235Z,1.05
2024-03-15T14:55:04.492Z,1.20
2024-03-15T14:57:31.111Z,1.35
2024-03-15T15:00:01.742Z,1.27
2024-03-15T15:02:28.708Z,1.27
2024-03-15T15:04:55.467Z,1.17
2024-03-15T15:07:24.897Z,1.33
2024-03-15T15:09:52.767Z,1.13
2024-03-15T15:12:20.656Z,1.30
2024-03-15T15:14:47.349Z,1.27
2024-03-15T15:17:14.212Z,1.30
2024-03-15T15:19:41.243Z,1.20
2024-03-15T15:22:08.543Z,1.40
2024-03-15T15:24:35.032Z,1.63
2024-03-15T15:27:01.548Z,1.50
2024-03-15T15:29:31.800Z,1.70
2024-03-15T15:31:58.773Z,2.00
2024-03-15T15:34:29.063Z,1.52
2024-03-15T15:36:56.524Z,1.88
2024-03-15T15:39:23.119Z,1.85
2024-03-15T15:41:51.203Z,1.75
2024-03-15T15:44:17.789Z,2.00
2024-03-15T15:46:45.876Z,2.25
2024-03-15T15:49:13.065Z,2.25
2024-03-15T15:51:41.442Z,2.40
2024-03-15T15:54:12.477Z,2.50
2024-03-15T15:56:39.574Z,2.80
2024-03-15T15:59:06.875Z,2.50
2024-03-15T16:01:38.138Z,2.70
2024-03-15T16:04:04.974Z,2.40
2024-03-15T16:06:31.525Z,2.38
2024-03-15T16:08:58.166Z,2.20
2024-03-15T16:11:25.696Z,2.50
2024-03-15T16:13:52.222Z,2.47
2024-03-15T16:16:18.652Z,3.13
2024-03-15T16:18:45.194Z,3.10
2024-03-15T16:21:11.809Z,2.58
2024-03-15T16:23:38.244Z,1.58
2024-03-15T16:26:04.922Z,1.52
2024-03-15T16:28:31.368Z,1.10
2024-03-15T16:30:58.960Z,0.75
2024-03-15T16:33:26.432Z,0.73
2024-03-15T16:35:53.138Z,0.73
2024-03-15T16:42:00.805Z,0.50
2024-03-15T16:44:27.284Z,0.60
2024-03-15T16:46:54.378Z,0.88
2024-03-15T16:49:20.904Z,0.60
2024-03-15T16:51:47.352Z,0.98
2024-03-15T16:54:13.862Z,1.08
2024-03-15T16:56:40.329Z,0.85
2024-03-15T16:59:08.280Z,0.80
2024-03-15T17:01:34.753Z,0.70
2024-03-15T17:04:01.219Z,1.05
2024-03-15T17:06:27.654Z,0.98
2024-03-15T17:08:54.096Z,1.25
2024-03-15T17:11:20.549Z,1.35
2024-03-15T17:13:46.990Z,0.93
2024-03-15T17:16:14.277Z,1.15
2024-03-15T17:18:40.852Z,1.30
2024-03-15T17:21:09.009Z,1.08
2024-03-15T17:23:36.335Z,1.17
2024-03-15T17:26:03.361Z,1.23
2024-03-15T17:28:29.748Z,1.20
2024-03-15T17:30:56.545Z,1.33
2024-03-15T17:33:24.312Z,1.70
2024-03-15T17:35:50.799Z,1.10
2024-03-15T17:38:17.746Z,1.50
2024-03-15T17:40:48.844Z,1.50
2024-03-15T17:43:15.488Z,1.40
2024-03-15T17:45:41.930Z,1.50
2024-03-15T17:48:08.448Z,1.30
2024-03-15T17:50:34.903Z,1.33
2024-03-15T17:53:04.331Z,1.42
2024-03-15T17:55:30.865Z,1.30
2024-03-15T17:57:57.642Z,1.20
2024-03-15T18:00:26.514Z,1.48
2024-03-15T18:02:55.916Z,1.27
2024-03-15T18:05:22.425Z,1.38
2024-03-15T18:07:48.821Z,1.20
2024-03-15T18:10:15.308Z,1.35
2024-03-15T18:12:42.675Z,1.42
2024-03-15T18:15:09.964Z,1.20
2024-03-15T18:17:36.717Z,1.33
2024-03-15T18:20:04.587Z,1.58
2024-03-15T18:22:31.015Z,1.50
2024-03-15T18:24:57.505Z,1.40
2024-03-15T18:27:23.990Z,1.40
2024-03-15T18:29:50.493Z,1.80
2024-03-15T18:32:17.108Z,1.65
2024-03-15T18:34:47.858Z,1.50
2024-03-15T18:37:15.263Z,1.60
2024-03-15T18:39:44.038Z,1.52
2024-03-15T18:42:10.539Z,1.80
2024-03-15T18:44:36.955Z,1.80
2024-03-15T18:47:05.867Z,1.85
2024-03-15T18:49:33.269Z,1.75
2024-03-15T18:51:59.864Z,1.50
2024-03-15T18:54:26.465Z,1.83
2024-03-15T18:56:53.306Z,1.83
2024-03-15T18:59:30.380Z,1.80
2024-03-15T19:01:57.871Z,2.10
2024-03-15T19:04:24.417Z,2.30
2024-03-15T19:06:50.861Z,2.28
2024-03-15T19:09:17.360Z,2.30
2024-03-15T19:11:43.866Z,2.25
2024-03-15T19:14:10.270Z,2.17
2024-03-15T19:16:38.808Z,2.65
2024-03-15T19:19:05.514Z,2.40
2024-03-15T19:21:32.090Z,2.20
2024-03-15T19:23:58.522Z,2.78
2024-03-15T19:26:25.100Z,2.72
2024-03-15T19:28:51.532Z,2.45
2024-03-15T19:31:18.008Z,2.63
2024-03-15T19:33:45.171Z,2.80
2024-03-15T19:36:12.829Z,2.90
2024-03-15T19:38:39.280Z,3.30
2024-03-15T19:41:11.542Z,3.28
2024-03-15T19:43:40.629Z,3.30
2024-03-15T19:46:07.584Z,3.13
2024-03-15T19:48:34.583Z,3.15
2024-03-15T19:51:01.804Z,3.40
2024-03-15T19:53:30.379Z,3.60
2024-03-15T19:55:59.328Z,3.88
2024-03-15T19:58:26.674Z,3.80
2024-03-15T20:00:54.029Z,3.60
2024-03-15T20:03:20.833Z,3.60
2024-03-15T20:05:47.529Z,3.60
2024-03-15T20:08:14.460Z,3.63
2024-03-15T20:10:41.679Z,3.90
2024-03-15T20:13:08.272Z,3.67
2024-03-15T20:15:34.998Z,3.75
2024-03-15T20:18:01.540Z,3.83
2024-03-15T20:20:28.158Z,4.13
2024-03-15T20:22:54.582Z,4.25
2024-03-15T20:25:21.062Z,4.50
2024-03-15T20:27:47.886Z,3.88
2024-03-15T20:30:14.384Z,4.18
2024-03-15T20:32:40.995Z,4.55
2024-03-15T20:35:07.753Z,4.78
2024-03-15T20:37:34.197Z,4.45
2024-03-15T20:40:00.681Z,4.50
2024-03-15T20:42:27.238Z,4.05
2024-03-15T20:44:53.686Z,4.43
2024-03-15T20:47:20.105Z,4.85
2024-03-15T20:49:46.902Z,5.03
2024-03-15T20:52:13.509Z,4.47
2024-03-15T20:54:40.698Z,4.85
2024-03-15T20:57:07.176Z,5.43
2024-03-15T20:59:33.773Z,5.10
2024-03-15T21:02:09.420Z,5.68
2024-03-15T21:04:37.438Z,6.20
2024-03-15T21:07:04.091Z,6.30
2024-03-15T21:09:30.674Z,6.35
2024-03-15T21:11:57.312Z,6.10
2024-03-15T21:14:23.735Z,6.75
2024-03-15T21:16:51.773Z,6.20
2024-03-15T21:19:18.564Z,6.32
2024-03-15T21:21:45.009Z,6.85
2024-03-15T21:24:11.561Z,6.45
2024-03-15T21:26:38.055Z,6.60
2024-03-15T21:29:04.462Z,6.28
2024-03-15T21:31:31.016Z,6.63
2024-03-15T21:33:59.765Z,6.70
2024-03-15T21:36:26.658Z,6.65
2024-03-15T21:38:53.477Z,7.05
2024-03-15T21:41:19.884Z,6.30
2024-03-15T21:43:46.370Z,6.57
2024-03-15T21:46:21.059Z,6.47
2024-03-15T21:48:47.985Z,6.25
2024-03-15T21:51:14.811Z,6.10
2024-03-15T21:53:43.496Z,6.05
2024-03-15T21:56:09.936Z,6.50
2024-03-15T21:58:36.350Z,6.47
2024-03-15T22:01:03.167Z,5.88
2024-03-15T22:03:29.736Z,6.10
2024-03-15T22:05:59.198Z,6.15
2024-03-15T22:08:25.867Z,5.47
2024-03-15T22:10:54.296Z,5.40
2024-03-15T22:13:20.749Z,5.70
2024-03-15T22:15:47.952Z,5.60
2024-03-15T22:18:16.632Z,5.82
2024-03-15T22:20:43.144Z,5.45
2024-03-15T22:23:09.603Z,5.35
2024-03-15T22:25:36.002Z,5.30
2024-03-15T22:28:02.612Z,4.82
2024-03-15T22:30:29.144Z,5.15
2024-03-15T22:32:55.837Z,5.10
2024-03-15T22:35:22.904Z,4.70
2024-03-15T22:37:49.429Z,4.78
2024-03-15T22:40:17.268Z,4.85
2024-03-15T22:42:43.904Z,5.35
2024-03-15T22:45:10.357Z,4.50
2024-03-15T22:47:37.783Z,5.95
2024-03-15T22:50:05.665Z,4.63
2024-03-15T22:52:32.366Z,5.07
2024-03-15T22:54:59.455Z,5.07
2024-03-15T22:57:25.914Z,5.28
2024-03-15T22:59:52.367Z,4.72
2024-03-15T23:02:18.812Z,5.32
2024-03-15T23:04:45.287Z,5.10
2024-03-15T23:07:12.795Z,4.75
2024-03-15T23:09:40.280Z,4.72
2024-03-15T23:12:09.080Z,4.30
2024-03-15T23:14:35.528Z,5.15
2024-03-15T23:17:01.936Z,4.28
2024-03-15T23:19:29.622Z,4.30
2024-03-15T23:21:56.133Z,4.78
2024-03-15T23:24:22.627Z,4.90
2024-03-15T23:26:49.035Z,4.90
2024-03-15T23:29:17.890Z,5.40
2024-03-15T23:31:44.604Z,4.45
2024-03-15T23:34:11.544Z,5.70
2024-03-15T23:36:37.965Z,4.68
2024-03-15T23:39:05.455Z,4.75
2024-03-15T23:41:33.931Z,5.03
2024-03-15T23:44:02.242Z,5.25
2024-03-15T23:46:28.684Z,5.47
2024-03-15T23:48:55.106Z,5.07
2024-03-15T23:51:21.804Z,4.88
2024-03-15T23:53:48.757Z,5.45
2024-03-15T23:56:15.844Z,5.90
2024-03-15T23:58:42.276Z,5.47
